createdAt,value
2022-12-05T00:01:35.332Z,67700.56
2022-12-05T00:04:06.029Z,67695.69
2022-12-05T00:06:34.084Z,67698.31
2022-12-05T00:09:01.344Z,67689.13
2022-12-05T00:11:34.724Z,67692.66
2022-12-05T00:14:03.461Z,67686.09
2022-12-05T00:16:33.072Z,67694.00
2022-12-05T00:19:01.346Z,67687.78
2022-12-05T00:21:31.047Z,67686.31
2022-12-05T00:24:01.202Z,67681.41
2022-12-05T00:26:35.883Z,67689.09
2022-12-05T00:29:03.076Z,67680.25
2022-12-05T00:31:30.774Z,67681.19
2022-12-05T00:34:01.023Z,67672.56
2022-12-05T00:36:30.712Z,67677.09
2022-12-05T00:39:00.803Z,67683.28
2022-12-05T00:41:29.259Z,67684.22
2022-12-05T00:43:59.238Z,67677.09
2022-12-05T00:46:28.778Z,67677.44
2022-12-05T00:48:57.756Z,67673.13
2022-12-05T00:51:28.262Z,67674.47
2022-12-05T00:53:59.259Z,67688.16
2022-12-05T00:56:27.768Z,67679.72
2022-12-05T00:58:57.276Z,67676.72
2022-12-05T01:01:27.376Z,67678.78
2022-12-05T01:03:57.378Z,67686.09
2022-12-05T01:06:26.813Z,67681.78
2022-12-05T01:08:56.195Z,67685.16
2022-12-05T01:11:25.253Z,67689.13
2022-12-05T01:13:53.526Z,67690.63
2022-12-05T01:16:26.087Z,67687.03
2022-12-05T01:18:53.872Z,67682.72
2022-12-05T01:21:21.515Z,67670.22
2022-12-05T01:23:49.147Z,67689.28
2022-12-05T01:26:18.827Z,67692.66
2022-12-05T01:28:46.162Z,67687.03
2022-12-05T01:31:28.868Z,67690.03
2022-12-05T01:33:57.786Z,67698.69
2022-12-05T01:36:26.478Z,67688.94
2022-12-05T01:38:54.174Z,67685.53
2022-12-05T01:41:33.807Z,67687.59
2022-12-05T01:44:07.067Z,67665.72
2022-12-05T01:46:40.125Z,67684.97
2022-12-05T01:49:14.058Z,67661.19
2022-12-05T01:51:49.046Z,67685.53
2022-12-05T01:54:18.534Z,67685.72
2022-12-05T01:56:53.589Z,67692.31
2022-12-05T01:59:22.538Z,67699.63
2022-12-05T02:01:50.052Z,67700.22
2022-12-05T02:04:18.888Z,67694.75
2022-12-05T02:06:46.764Z,67673.59
2022-12-05T02:09:13.822Z,67689.50
2022-12-05T02:11:50.073Z,67697.38
2022-12-05T02:14:25.539Z,67682.16
2022-12-05T02:16:55.342Z,67679.72
2022-12-05T02:19:38.706Z,67649.25
2022-12-05T02:22:42.444Z,67630.84
2022-12-05T02:25:43.376Z,67630.84
2022-12-05T02:28:34.823Z,67631.97
2022-12-05T02:31:10.155Z,67631.03
2022-12-05T02:33:59.433Z,67643.59
2022-12-05T02:36:44.401Z,67634.78
2022-12-05T02:39:21.347Z,67629.72
2022-12-05T02:42:26.491Z,67629.72
2022-12-05T02:45:05.706Z,67640.97
2022-12-05T02:47:38.153Z,67657.69
2022-12-05T02:50:09.030Z,67654.13
2022-12-05T02:52:36.617Z,67652.06
2022-12-05T02:55:05.241Z,67652.06
2022-12-05T02:57:40.484Z,67657.31
2022-12-05T03:00:20.774Z,67646.53
2022-12-05T03:02:54.323Z,67667.28
2022-12-05T03:05:52.655Z,67645.97
2022-12-05T03:08:23.772Z,67670.31
2022-12-05T03:10:53.168Z,67666.56
2022-12-05T03:13:29.560Z,67671.44
2022-12-05T03:16:04.575Z,67681.41
2022-12-05T03:18:47.617Z,67652.75
2022-12-05T03:21:38.936Z,67678.00
2022-12-05T03:24:11.665Z,67676.50
2022-12-05T03:27:11.765Z,67671.44
2022-12-05T03:29:54.975Z,67661.84
2022-12-05T03:32:48.456Z,67668.41
2022-12-05T03:35:49.731Z,67661.28
2022-12-05T03:38:29.301Z,67652.28
2022-12-05T03:41:20.587Z,67640.22
2022-12-05T03:43:55.258Z,67641.34
2022-12-05T03:46:48.880Z,67621.59
2022-12-05T03:49:34.265Z,67615.97
2022-12-05T03:52:10.488Z,67619.72
2022-12-05T03:54:44.649Z,67612.78
2022-12-05T03:57:17.287Z,67617.09
2022-12-05T03:59:50.086Z,67628.00
2022-12-05T04:02:35.782Z,67625.19
2022-12-05T04:05:13.309Z,67629.84
2022-12-05T04:07:42.888Z,67632.88
2022-12-05T04:10:16.018Z,67627.44
2022-12-05T04:12:46.075Z,67624.63
2022-12-05T04:15:23.221Z,67622.19
2022-12-05T04:18:00.819Z,67627.81
2022-12-05T04:21:10.247Z,67630.84
2022-12-05T04:23:41.392Z,67622.59
2022-12-05T04:26:23.648Z,67626.69
2022-12-05T04:28:57.739Z,67620.88
2022-12-05T04:31:35.194Z,67620.13
2022-12-05T04:34:06.694Z,67619.56
2022-12-05T04:36:56.678Z,67620.69
2022-12-05T04:39:30.495Z,67617.09
2022-12-05T04:42:04.364Z,67607.72
2022-12-05T04:44:48.486Z,67612.97
2022-12-05T04:47:22.173Z,67610.69
2022-12-05T04:49:55.142Z,67606.03
2022-12-05T04:52:23.218Z,67604.53
2022-12-05T04:54:53.284Z,67608.84
2022-12-05T04:57:31.586Z,67611.47
2022-12-05T04:59:58.877Z,67610.75
2022-12-05T05:02:43.320Z,67611.09
2022-12-05T05:05:18.148Z,67610.53
2022-12-05T05:07:53.788Z,67605.44
2022-12-05T05:10:59.299Z,67611.09
2022-12-05T05:13:26.617Z,67587.91
2022-12-05T05:15:53.721Z,67603.97
2022-12-05T05:18:20.833Z,67604.13
2022-12-05T05:20:47.951Z,67610.16
2022-12-05T05:23:15.204Z,67617.09
2022-12-05T05:25:45.938Z,67624.06
2022-12-05T05:28:15.216Z,67630.84
2022-12-05T05:30:45.356Z,67634.00
2022-12-05T05:33:17.159Z,67625.94
2022-12-05T05:35:44.264Z,67630.47
2022-12-05T05:38:20.494Z,67636.28
2022-12-05T05:40:47.583Z,67640.78
2022-12-05T05:43:14.896Z,67637.41
2022-12-05T05:45:42.005Z,67641.72
2022-12-05T05:48:09.150Z,67632.50
2022-12-05T05:50:36.651Z,67633.47
2022-12-05T05:53:11.484Z,67630.47
2022-12-05T05:55:41.923Z,67629.72
2022-12-05T05:58:09.393Z,67627.44
2022-12-05T06:00:36.790Z,67621.44
2022-12-05T06:03:04.042Z,67625.00
2022-12-05T06:05:31.628Z,67630.63
2022-12-05T06:07:58.899Z,67637.59
2022-12-05T06:10:32.704Z,67643.25
2022-12-05T06:13:00.175Z,67646.63
2022-12-05T06:15:34.808Z,67647.75
2022-12-05T06:18:01.872Z,67647.75
2022-12-05T06:20:31.486Z,67629.63
2022-12-05T06:22:58.904Z,67647.00
2022-12-05T06:25:27.759Z,67643.78
2022-12-05T06:27:55.079Z,67637.22
2022-12-05T06:30:22.281Z,67641.53
2022-12-05T06:32:49.883Z,67647.75
2022-12-05T06:35:17.069Z,67644.72
2022-12-05T06:37:45.417Z,67615.53
2022-12-05T06:40:20.872Z,67640.97
2022-12-05T06:42:55.143Z,67631.97
2022-12-05T06:45:22.229Z,67624.84
2022-12-05T06:47:51.222Z,67616.66
2022-12-05T06:50:18.914Z,67635.91
2022-12-05T06:52:46.040Z,67628.22
2022-12-05T06:55:15.240Z,67630.06
2022-12-05T06:57:42.429Z,67616.38
2022-12-05T07:03:13.248Z,67607.16
2022-12-05T07:05:40.440Z,67598.69
2022-12-05T07:08:09.914Z,67597.94
2022-12-05T07:10:39.997Z,67600.75
2022-12-05T07:13:07.124Z,67598.47
2022-12-05T07:15:37.552Z,67601.88
2022-12-05T07:18:04.674Z,67600.03
2022-12-05T07:20:49.493Z,67604.34
2022-12-05T07:23:25.879Z,67605.25
2022-12-05T07:25:53.498Z,67609.22
2022-12-05T07:28:21.025Z,67611.88
2022-12-05T07:30:48.729Z,67633.09
2022-12-05T07:33:15.794Z,67636.47
2022-12-05T07:35:45.936Z,67629.91
2022-12-05T07:38:15.658Z,67625.56
2022-12-05T07:40:42.732Z,67596.38
2022-12-05T07:43:10.577Z,67621.59
2022-12-05T07:45:37.623Z,67621.97
2022-12-05T07:48:05.164Z,67613.72
2022-12-05T07:50:32.367Z,67610.34
2022-12-05T07:52:59.552Z,67609.75
2022-12-05T07:55:26.698Z,67604.34
2022-12-05T07:57:53.857Z,67601.50
2022-12-05T08:00:21.931Z,67577.22
2022-12-05T08:02:49.445Z,67607.09
2022-12-05T08:05:16.743Z,67609.22
2022-12-05T08:07:43.979Z,67609.22
2022-12-05T08:10:11.349Z,67613.56
2022-12-05T08:12:38.595Z,67621.81
2022-12-05T08:15:06.787Z,67629.16
2022-12-05T08:17:34.028Z,67646.41
2022-12-05T08:20:01.279Z,67638.72
2022-12-05T08:22:28.506Z,67636.47
2022-12-05T08:24:56.508Z,67640.78
2022-12-05T08:27:23.783Z,67647.00
2022-12-05T08:29:50.879Z,67654.66
2022-12-05T08:32:18.061Z,67657.69
2022-12-05T08:34:45.305Z,67678.41
2022-12-05T08:37:12.470Z,67676.72
2022-12-05T08:39:39.712Z,67658.94
2022-12-05T08:42:06.878Z,67684.97
2022-12-05T08:44:34.164Z,67692.25
2022-12-05T08:47:01.384Z,67707.34
2022-12-05T08:49:28.579Z,67718.06
2022-12-05T08:51:55.838Z,67707.91
2022-12-05T08:54:23.061Z,67701.34
2022-12-05T08:56:51.974Z,67674.72
2022-12-05T08:59:19.886Z,67695.13
2022-12-05T09:01:49.509Z,67697.75
2022-12-05T09:04:16.640Z,67694.56
2022-12-05T09:06:43.796Z,67689.13
2022-12-05T09:09:12.002Z,67693.81
2022-12-05T09:11:46.207Z,67669.09
2022-12-05T09:14:13.813Z,67685.53
2022-12-05T09:16:41.310Z,67685.16
2022-12-05T09:19:14.699Z,67689.84
2022-12-05T09:21:42.776Z,67689.28
2022-12-05T09:24:12.441Z,67688.94
2022-12-05T09:26:40.808Z,67685.34
2022-12-05T09:29:14.153Z,67696.47
2022-12-05T09:31:44.154Z,67701.53
2022-12-05T09:34:14.206Z,67700.38
2022-12-05T09:36:42.475Z,67696.97
2022-12-05T09:39:10.503Z,67685.53
2022-12-05T09:42:05.049Z,67657.81
2022-12-05T09:44:58.026Z,67672.78
2022-12-05T09:47:28.411Z,67676.50
2022-12-05T09:50:28.586Z,67685.69
2022-12-05T09:53:25.199Z,67660.06
2022-12-05T09:56:03.663Z,67689.69
2022-12-05T09:58:46.210Z,67682.63
2022-12-05T10:01:25.338Z,67701.53
2022-12-05T10:04:26.800Z,67706.06
2022-12-05T10:07:18.986Z,67747.41
2022-12-05T10:10:24.436Z,67747.59
2022-12-05T10:13:18.941Z,67735.75
2022-12-05T10:15:55.692Z,67737.44
2022-12-05T10:18:33.967Z,67726.38
2022-12-05T10:21:08.251Z,67718.25
2022-12-05T10:23:57.182Z,67718.44
2022-12-05T10:26:30.338Z,67706.06
2022-12-05T10:29:07.188Z,67700.56
2022-12-05T10:31:38.298Z,67666.84
2022-12-05T10:34:37.373Z,67702.47
2022-12-05T10:37:17.844Z,67691.75
2022-12-05T10:39:47.506Z,67688.00
2022-12-05T10:42:31.861Z,67693.25
2022-12-05T10:45:03.569Z,67684.63
2022-12-05T10:47:32.417Z,67687.59
2022-12-05T10:50:05.338Z,67694.34
2022-12-05T10:52:32.965Z,67687.22
2022-12-05T10:55:06.600Z,67705.47
2022-12-05T10:57:33.759Z,67689.28
2022-12-05T11:00:17.849Z,67686.69
2022-12-05T11:02:51.143Z,67686.09
2022-12-05T11:05:28.837Z,67688.34
2022-12-05T11:07:56.835Z,67691.94
2022-12-05T11:10:34.682Z,67694.94
2022-12-05T11:13:13.723Z,67696.81
2022-12-05T11:15:49.438Z,67697.75
2022-12-05T11:18:29.501Z,67701.53
2022-12-05T11:21:09.245Z,67706.78
2022-12-05T11:23:36.610Z,67710.91
2022-12-05T11:26:04.043Z,67713.75
2022-12-05T11:28:34.514Z,67715.78
2022-12-05T11:31:17.082Z,67702.09
2022-12-05T11:34:02.200Z,67697.94
2022-12-05T11:36:49.191Z,67693.81
2022-12-05T11:39:16.602Z,67692.88
2022-12-05T11:42:13.137Z,67686.69
2022-12-05T11:45:01.743Z,67691.38
2022-12-05T11:47:56.356Z,67691.75
2022-12-05T11:50:38.754Z,67691.94
2022-12-05T11:53:54.046Z,67705.28
2022-12-05T11:56:27.195Z,67716.00
2022-12-05T11:59:14.230Z,67722.03
2022-12-05T12:01:53.677Z,67712.44
2022-12-05T12:05:02.402Z,67715.09
2022-12-05T12:07:35.669Z,67725.59
2022-12-05T12:10:21.197Z,67725.78
2022-12-05T12:13:16.022Z,67735.56
2022-12-05T12:15:49.136Z,67735.56
2022-12-05T12:18:34.305Z,67744.75
2022-12-05T12:21:19.139Z,67735.75
2022-12-05T12:24:02.199Z,67730.88
2022-12-05T12:26:41.325Z,67729.91
2022-12-05T12:29:23.985Z,67726.72
2022-12-05T12:32:23.587Z,67727.84
2022-12-05T12:35:02.683Z,67734.44
2022-12-05T12:38:04.796Z,67732.94
2022-12-05T12:41:04.557Z,67716.19
2022-12-05T12:44:08.465Z,67724.28
2022-12-05T12:46:44.674Z,67726.38
2022-12-05T12:49:28.269Z,67733.28
2022-12-05T12:52:03.043Z,67723.31
2022-12-05T12:55:07.951Z,67720.69
2022-12-05T12:58:04.431Z,67715.78
2022-12-05T13:00:50.488Z,67700.78
2022-12-05T13:03:22.967Z,67693.06
2022-12-05T13:05:55.671Z,67702.25
2022-12-05T13:08:36.071Z,67711.28
2022-12-05T13:11:08.825Z,67710.16
2022-12-05T13:13:50.963Z,67727.09
2022-12-05T13:16:26.765Z,67709.81
2022-12-05T13:18:56.013Z,67705.66
2022-12-05T13:21:24.296Z,67704.31
2022-12-05T13:23:55.912Z,67694.19
2022-12-05T13:26:24.075Z,67700.22
2022-12-05T13:28:59.255Z,67696.06
2022-12-05T13:31:41.702Z,67690.63
2022-12-05T13:34:35.288Z,67714.69
2022-12-05T13:37:30.234Z,67673.34
2022-12-05T13:40:16.806Z,67652.81
2022-12-05T13:42:44.684Z,67637.97
2022-12-05T13:45:15.688Z,67628.00
2022-12-05T13:48:02.811Z,67623.88
2022-12-05T13:50:46.100Z,67623.09
2022-12-05T13:53:19.439Z,67618.22
2022-12-05T13:56:12.610Z,67613.72
2022-12-05T13:58:52.667Z,67609.41
2022-12-05T14:01:26.197Z,67604.91
2022-12-05T14:04:02.157Z,67610.91
2022-12-05T14:06:52.235Z,67587.34
2022-12-05T14:09:19.468Z,67608.06
2022-12-05T14:12:16.248Z,67606.75
2022-12-05T14:15:04.141Z,67600.59
2022-12-05T14:17:45.099Z,67603.00
2022-12-05T14:20:49.339Z,67606.75
2022-12-05T14:23:45.580Z,67609.22
2022-12-05T14:26:34.844Z,67610.91
2022-12-05T14:29:29.231Z,67615.03
2022-12-05T14:32:34.012Z,67614.69
2022-12-05T14:35:01.150Z,67613.16
2022-12-05T14:37:31.809Z,67604.34
2022-12-05T14:40:02.348Z,67609.97
2022-12-05T14:42:44.230Z,67616.72
2022-12-05T14:45:27.025Z,67606.59
2022-12-05T14:48:23.594Z,67607.16
2022-12-05T14:50:52.958Z,67597.78
2022-12-05T14:53:30.276Z,67608.06
2022-12-05T14:56:00.169Z,67602.66
2022-12-05T14:58:51.415Z,67597.00
2022-12-05T15:01:23.478Z,67592.88
2022-12-05T15:04:12.063Z,67581.78
2022-12-05T15:06:55.789Z,67585.16
2022-12-05T15:09:49.024Z,67587.78
2022-12-05T15:12:44.861Z,67581.59
2022-12-05T15:15:33.535Z,67587.22
2022-12-05T15:18:16.892Z,67582.72
2022-12-05T15:20:59.272Z,67574.44
2022-12-05T15:23:44.354Z,67578.19
2022-12-05T15:26:44.925Z,67580.09
2022-12-05T15:29:09.220Z,67585.53
2022-12-05T15:31:44.489Z,67576.16
2022-12-05T15:34:18.705Z,67572.19
2022-12-05T15:36:51.903Z,67572.00
2022-12-05T15:39:24.107Z,67563.19
2022-12-05T15:41:56.471Z,67565.22
2022-12-05T15:44:34.255Z,67564.13
2022-12-05T15:47:04.880Z,67558.69
2022-12-05T15:49:32.296Z,67557.75
2022-12-05T15:52:10.223Z,67557.75
2022-12-05T15:54:38.690Z,67561.50
2022-12-05T15:57:12.656Z,67560.94
2022-12-05T15:59:49.173Z,67572.94
2022-12-05T16:02:34.058Z,67576.31
2022-12-05T16:05:02.410Z,67572.56
2022-12-05T16:07:31.643Z,67570.31
2022-12-05T16:10:00.716Z,67572.75
2022-12-05T16:12:38.411Z,67575.94
2022-12-05T16:15:23.153Z,67565.78
2022-12-05T16:17:57.109Z,67564.47
2022-12-05T16:20:28.063Z,67554.53
2022-12-05T16:22:58.418Z,67552.28
2022-12-05T16:25:36.991Z,67542.53
2022-12-05T16:28:11.301Z,67547.75
2022-12-05T16:30:39.582Z,67551.34
2022-12-05T16:33:13.906Z,67553.22
2022-12-05T16:35:46.388Z,67545.16
2022-12-05T16:38:16.728Z,67548.91
2022-12-05T16:40:49.794Z,67549.47
2022-12-05T16:43:25.927Z,67545.72
2022-12-05T16:45:55.512Z,67550.59
2022-12-05T16:48:27.215Z,67548.31
2022-12-05T16:51:18.791Z,67548.31
2022-12-05T16:53:52.535Z,67541.75
2022-12-05T16:56:26.357Z,67543.25
2022-12-05T16:58:54.146Z,67541.56
2022-12-05T17:01:22.603Z,67537.25
2022-12-05T17:03:50.167Z,67536.72
2022-12-05T17:06:24.269Z,67538.75
2022-12-05T17:08:53.607Z,67537.63
2022-12-05T17:11:26.005Z,67532.41
2022-12-05T17:13:55.887Z,67535.22
2022-12-05T17:16:23.707Z,67541.00
2022-12-05T17:18:50.838Z,67538.41
2022-12-05T17:21:23.557Z,67537.81
2022-12-05T17:23:51.555Z,67541.56
2022-12-05T17:26:21.260Z,67544.75
2022-12-05T17:28:49.587Z,67539.16
2022-12-05T17:31:20.622Z,67541.56
2022-12-05T17:33:50.286Z,67541.00
2022-12-05T17:36:17.900Z,67544.19
2022-12-05T17:38:45.790Z,67541.22
2022-12-05T17:41:23.180Z,67538.75
2022-12-05T17:43:51.576Z,67540.81
2022-12-05T17:46:23.347Z,67534.47
2022-12-05T17:48:51.803Z,67532.19
2022-12-05T17:51:20.427Z,67535.38
2022-12-05T17:53:47.765Z,67530.84
2022-12-05T17:56:15.598Z,67532.56
2022-12-05T17:58:42.702Z,67534.25
2022-12-05T18:01:15.804Z,67535.16
2022-12-05T18:03:43.435Z,67520.56
2022-12-05T18:06:11.109Z,67523.53
2022-12-05T18:08:43.923Z,67522.41
2022-12-05T18:11:14.142Z,67522.41
2022-12-05T18:13:41.615Z,67524.66
2022-12-05T18:16:08.892Z,67522.41
2022-12-05T18:18:36.625Z,67521.28
2022-12-05T18:21:09.488Z,67522.19
2022-12-05T18:23:38.166Z,67517.91
2022-12-05T18:26:08.012Z,67517.34
2022-12-05T18:28:39.896Z,67513.03
2022-12-05T18:31:16.835Z,67511.34
2022-12-05T18:33:45.152Z,67514.53
2022-12-05T18:36:16.159Z,67511.34
2022-12-05T18:38:49.653Z,67509.44
2022-12-05T18:41:16.983Z,67507.56
2022-12-05T18:43:44.314Z,67504.03
2022-12-05T18:46:11.837Z,67499.31
2022-12-05T18:48:41.613Z,67493.88
2022-12-05T18:51:14.484Z,67488.25
2022-12-05T18:53:42.311Z,67488.81
2022-12-05T18:56:22.295Z,67488.81
2022-12-05T18:59:02.646Z,67466.22
2022-12-05T19:01:31.560Z,67482.63
2022-12-05T19:04:00.608Z,67477.00
2022-12-05T19:06:29.994Z,67484.66
2022-12-05T19:09:00.353Z,67477.91
2022-12-05T19:11:28.943Z,67475.66
2022-12-05T19:14:02.063Z,67477.56
2022-12-05T19:16:30.947Z,67470.44
2022-12-05T19:19:00.882Z,67472.84
2022-12-05T19:21:30.776Z,67473.06
2022-12-05T19:23:58.618Z,67472.47
2022-12-05T19:26:26.812Z,67475.31
2022-12-05T19:28:54.588Z,67471.91
2022-12-05T19:31:25.124Z,67472.13
2022-12-05T19:33:55.403Z,67474.16
2022-12-05T19:36:31.855Z,67470.03
2022-12-05T19:38:59.765Z,67464.97
2022-12-05T19:41:29.570Z,67466.84
2022-12-05T19:44:01.950Z,67461.97
2022-12-05T19:46:30.738Z,67439.22
2022-12-05T19:49:00.424Z,67461.56
2022-12-05T19:51:28.231Z,67463.25
2022-12-05T19:53:55.550Z,67461.44
2022-12-05T19:56:25.246Z,67471.72
2022-12-05T19:58:54.048Z,67471.72
2022-12-05T20:01:27.305Z,67472.84
2022-12-05T20:04:02.894Z,67471.56
2022-12-05T20:06:37.376Z,67474.16
2022-12-05T20:09:06.855Z,67473.06
2022-12-05T20:11:35.360Z,67477.69
2022-12-05T20:14:02.673Z,67474.72
2022-12-05T20:16:32.003Z,67464.59
2022-12-05T20:18:59.799Z,67460.66
2022-12-05T20:21:30.507Z,67464.97
2022-12-05T20:24:02.288Z,67461.22
2022-12-05T20:26:33.231Z,67459.88
2022-12-05T20:29:01.075Z,67450.53
2022-12-05T20:31:38.496Z,67452.00
2022-12-05T20:34:09.107Z,67456.31
2022-12-05T20:36:36.734Z,67448.47
2022-12-05T20:39:07.756Z,67455.38
2022-12-05T20:41:38.276Z,67460.25
2022-12-05T20:44:07.410Z,67471.16
2022-12-05T20:46:35.459Z,67463.25
2022-12-05T20:49:02.887Z,67459.88
2022-12-05T20:51:32.423Z,67455.25
2022-12-05T20:54:03.894Z,67452.78
2022-12-05T20:56:33.087Z,67453.34
2022-12-05T20:59:03.169Z,67457.63
2022-12-05T21:01:32.572Z,67459.31
2022-12-05T21:04:00.430Z,67460.47
2022-12-05T21:06:33.760Z,67458.78
2022-12-05T21:09:06.512Z,67455.03
2022-12-05T21:11:33.729Z,67455.94
2022-12-05T21:14:10.556Z,67448.63
2022-12-05T21:16:38.143Z,67440.03
2022-12-05T21:19:07.591Z,67439.25
2022-12-05T21:21:34.904Z,67435.50
2022-12-05T21:24:04.052Z,67436.66
2022-12-05T21:26:34.886Z,67430.47
2022-12-05T21:29:03.456Z,67437.72
2022-12-05T21:31:33.649Z,67425.38
2022-12-05T21:34:05.431Z,67431.53
2022-12-05T21:36:35.056Z,67401.50
2022-12-05T21:39:02.271Z,67421.81
2022-12-05T21:41:29.434Z,67418.97
2022-12-05T21:43:56.634Z,67415.41
2022-12-05T21:46:25.453Z,67416.72
2022-12-05T21:48:53.317Z,67414.84
2022-12-05T21:51:21.567Z,67407.94
2022-12-05T21:53:49.141Z,67411.28
2022-12-05T21:56:18.652Z,67405.84
2022-12-05T21:58:47.239Z,67394.44
2022-12-05T22:01:33.021Z,67413.53
2022-12-05T22:04:00.855Z,67404.16
2022-12-05T22:06:31.908Z,67406.19
2022-12-05T22:08:59.969Z,67405.28
2022-12-05T22:11:27.273Z,67406.41
2022-12-05T22:13:54.703Z,67399.84
2022-12-05T22:16:25.363Z,67402.66
2022-12-05T22:18:56.380Z,67406.97
2022-12-05T22:21:23.639Z,67404.91
2022-12-05T22:23:50.937Z,67404.16
2022-12-05T22:26:23.073Z,67400.63
2022-12-05T22:28:51.344Z,67403.22
2022-12-05T22:31:19.677Z,67410.91
2022-12-05T22:33:47.569Z,67408.66
2022-12-05T22:36:16.255Z,67402.31
2022-12-05T22:38:45.669Z,67408.09
2022-12-05T22:41:18.705Z,67405.84
2022-12-05T22:43:47.797Z,67406.41
2022-12-05T22:46:20.549Z,67400.41
2022-12-05T22:48:49.228Z,67404.38
2022-12-05T22:51:18.201Z,67410.91
2022-12-05T22:53:45.591Z,67416.72
2022-12-05T22:56:15.671Z,67412.25
2022-12-05T22:58:45.784Z,67408.84
2022-12-05T23:01:17.118Z,67412.59
2022-12-05T23:03:46.460Z,67404.56
2022-12-05T23:06:16.153Z,67401.19
2022-12-05T23:08:45.743Z,67402.66
2022-12-05T23:11:13.056Z,67405.28
2022-12-05T23:13:40.281Z,67399.84
2022-12-05T23:16:10.115Z,67402.66
2022-12-05T23:18:47.946Z,67405.28
2022-12-05T23:21:35.500Z,67407.53
2022-12-05T23:24:05.483Z,67404.72
2022-12-05T23:26:37.942Z,67403.59
2022-12-05T23:29:05.217Z,67405.06
2022-12-05T23:31:33.021Z,67400.41
2022-12-05T23:34:03.545Z,67396.69
2022-12-05T23:36:32.814Z,67400.41
2022-12-05T23:39:00.502Z,67406.41
2022-12-05T23:41:28.364Z,67401.75
2022-12-05T23:43:56.748Z,67404.38
2022-12-05T23:46:26.703Z,67411.69
2022-12-05T23:48:55.227Z,67413.16
2022-12-05T23:51:24.904Z,67419.34
2022-12-05T23:53:55.168Z,67417.09
2022-12-05T23:56:28.756Z,67416.19
2022-12-05T23:58:56.763Z,67415.25
